Time;durP1;ratioP1;P1;durP2;ratioP2;P2;SDS_P1;SDS_P2;PMS_P1;PMS_P2;Temp;Humidity;BMP_temperature;BMP_pressure;BME280_temperature;BME280_humidity;BME280_pressure;Samples;Min_cycle;Max_cycle;Signal;HPM_P1;HPM_P2
2022/07/02 00:00:25;;;;;;;16.70;3.58;;;;;;;;;;5008793;28;20337;-62
2022/07/02 00:02:53;;;;;;;18.08;4.15;;;;;;;;;;5009569;28;20052;-63
2022/07/02 00:05:22;;;;;;;10.05;3.65;;;;;;;;;;5010194;28;20105;-62
2022/07/02 00:07:50;;;;;;;12.60;3.25;;;;;;;;;;5010756;28;20376;-62
2022/07/02 00:10:18;;;;;;;15.93;3.97;;;;;;;;;;5009917;28;20034;-63
2022/07/02 00:12:46;;;;;;;13.27;3.75;;;;;;;;;;5010774;28;20025;-62
2022/07/02 00:15:13;;;;;;;17.70;4.57;;;;;;;;;;5010732;28;20034;-63
2022/07/02 00:17:41;;;;;;;13.77;3.90;;;;;;;;;;5011400;28;20021;-62
2022/07/02 00:20:08;;;;;;;18.15;3.80;;;;;;;;;;5010933;28;20034;-63
2022/07/02 00:22:35;;;;;;;16.90;4.28;;;;;;;;;;5009655;28;20036;-63
2022/07/02 00:25:02;;;;;;;16.23;4.28;;;;;;;;;;5007020;28;20052;-63
2022/07/02 00:27:31;;;;;;;11.95;4.07;;;;;;;;;;5010521;28;20018;-62
2022/07/02 00:29:59;;;;;;;16.20;4.47;;;;;;;;;;5010780;28;20052;-62
2022/07/02 00:32:30;;;;;;;11.68;3.90;;;;;;;;;;5010352;28;20383;-63
2022/07/02 00:34:58;;;;;;;15.95;4.38;;;;;;;;;;5008281;28;20048;-63
2022/07/02 00:37:29;;;;;;;21.20;5.25;;;;;;;;;;5005820;28;20088;-62
2022/07/02 00:39:56;;;;;;;27.15;6.93;;;;;;;;;;5015874;28;20087;-62
2022/07/02 00:42:24;;;;;;;24.42;6.72;;;;;;;;;;5021525;28;20030;-62
2022/07/02 00:44:52;;;;;;;42.00;8.43;;;;;;;;;;5027090;28;20029;-64
2022/07/02 00:47:23;;;;;;;39.67;8.48;;;;;;;;;;5014150;28;20029;-63
2022/07/02 00:49:50;;;;;;;36.88;9.65;;;;;;;;;;5005206;28;20036;-63
2022/07/02 00:52:18;;;;;;;39.20;9.40;;;;;;;;;;5007042;28;20069;-64
2022/07/02 00:54:45;;;;;;;42.55;10.57;;;;;;;;;;5010029;28;20030;-62
2022/07/02 00:57:12;;;;;;;49.35;11.48;;;;;;;;;;5004261;28;20029;-64
2022/07/02 00:59:40;;;;;;;56.42;12.48;;;;;;;;;;5008727;28;20478;-64
2022/07/02 01:02:10;;;;;;;59.30;12.68;;;;;;;;;;5009106;28;20456;-61
2022/07/02 01:04:37;;;;;;;59.22;13.10;;;;;;;;;;5007261;28;20508;-63
2022/07/02 01:07:14;;;;;;;60.55;13.10;;;;;;;;;;5004155;28;20042;-64
2022/07/02 01:12:28;;;;;;;71.85;14.00;;;;;;;;;;5007866;28;20044;-63
2022/07/02 01:14:57;;;;;;;59.55;13.30;;;;;;;;;;5005878;28;20076;-64
2022/07/02 01:17:24;;;;;;;59.38;13.73;;;;;;;;;;5006398;28;20096;-63
2022/07/02 01:19:51;;;;;;;49.20;12.52;;;;;;;;;;5007304;28;20033;-64
2022/07/02 01:22:18;;;;;;;63.47;13.80;;;;;;;;;;5007208;28;20038;-63
2022/07/02 01:24:46;;;;;;;49.85;11.63;;;;;;;;;;5006538;28;20447;-63
2022/07/02 01:27:13;;;;;;;48.47;12.23;;;;;;;;;;5002815;28;20076;-63
2022/07/02 01:29:40;;;;;;;44.08;10.90;;;;;;;;;;5022609;28;20604;-65
2022/07/02 01:32:08;;;;;;;43.38;12.73;;;;;;;;;;5019830;28;20083;-63
2022/07/02 01:34:40;;;;;;;50.38;12.68;;;;;;;;;;5024936;28;20057;-65
2022/07/02 01:37:11;;;;;;;53.15;11.98;;;;;;;;;;5021853;28;20025;-64
2022/07/02 01:39:39;;;;;;;48.03;11.88;;;;;;;;;;5023446;28;20042;-62
2022/07/02 01:42:07;;;;;;;43.97;11.32;;;;;;;;;;5008861;28;20034;-64
2022/07/02 01:44:34;;;;;;;53.38;12.35;;;;;;;;;;5002571;28;20088;-62
2022/07/02 01:47:05;;;;;;;47.58;11.45;;;;;;;;;;4999380;28;20053;-63
2022/07/02 01:49:33;;;;;;;42.45;11.52;;;;;;;;;;5016600;28;20515;-65
2022/07/02 01:52:00;;;;;;;40.83;10.30;;;;;;;;;;5014994;28;20049;-61
2022/07/02 01:54:27;;;;;;;45.70;11.40;;;;;;;;;;5004154;28;20038;-64
2022/07/02 01:56:54;;;;;;;46.20;11.63;;;;;;;;;;5010087;28;20443;-63
2022/07/02 01:59:21;;;;;;;50.08;10.90;;;;;;;;;;5007188;28;20022;-66
2022/07/02 02:01:49;;;;;;;54.65;11.70;;;;;;;;;;5009027;28;20026;-65
2022/07/02 02:04:16;;;;;;;47.80;10.82;;;;;;;;;;4990926;28;20038;-63
2022/07/02 02:06:43;;;;;;;44.42;10.93;;;;;;;;;;5007779;28;20026;-63
2022/07/02 02:09:10;;;;;;;42.13;10.52;;;;;;;;;;5005603;28;20038;-63
2022/07/02 02:11:37;;;;;;;39.75;9.52;;;;;;;;;;4990393;28;20657;-65
2022/07/02 02:14:05;;;;;;;36.55;10.52;;;;;;;;;;5004150;28;20030;-63
2022/07/02 02:16:32;;;;;;;39.50;9.57;;;;;;;;;;5010206;28;20049;-63
2022/07/02 02:18:59;;;;;;;37.47;9.73;;;;;;;;;;5011554;28;20566;-64
2022/07/02 02:21:27;;;;;;;35.72;9.77;;;;;;;;;;5005067;28;20079;-66
2022/07/02 02:23:54;;;;;;;36.97;10.05;;;;;;;;;;5004695;28;20038;-63
2022/07/02 02:26:22;;;;;;;32.15;9.68;;;;;;;;;;5005301;28;20034;-63
2022/07/02 02:28:49;;;;;;;33.33;8.75;;;;;;;;;;5006045;28;20108;-63
2022/07/02 02:31:16;;;;;;;33.78;7.90;;;;;;;;;;5006978;28;20030;-62
2022/07/02 02:33:43;;;;;;;35.20;9.63;;;;;;;;;;5009631;28;20072;-63
2022/07/02 02:36:10;;;;;;;30.20;8.05;;;;;;;;;;5007651;28;20380;-62
2022/07/02 02:38:37;;;;;;;30.55;8.55;;;;;;;;;;5007333;28;20077;-63
2022/07/02 02:41:09;;;;;;;34.33;8.45;;;;;;;;;;5004833;28;20113;-64
2022/07/02 02:43:36;;;;;;;31.87;8.47;;;;;;;;;;5011913;28;20034;-64
2022/07/02 02:46:04;;;;;;;27.48;7.20;;;;;;;;;;5012206;28;20025;-62
2022/07/02 02:48:32;;;;;;;27.48;7.78;;;;;;;;;;5011135;28;20044;-64
2022/07/02 02:50:59;;;;;;;28.70;7.95;;;;;;;;;;5008470;28;20033;-63
2022/07/02 02:53:26;;;;;;;30.00;7.88;;;;;;;;;;5010720;28;20775;-62
2022/07/02 02:55:53;;;;;;;24.80;7.40;;;;;;;;;;5012041;28;20499;-64
2022/07/02 02:58:20;;;;;;;25.95;6.95;;;;;;;;;;5012188;28;20033;-64
2022/07/02 03:00:47;;;;;;;25.60;7.53;;;;;;;;;;5013260;28;20068;-63
2022/07/02 03:03:14;;;;;;;24.63;7.18;;;;;;;;;;5013281;28;20026;-64
2022/07/02 03:05:41;;;;;;;31.45;7.32;;;;;;;;;;5013605;28;20042;-63
2022/07/02 03:08:08;;;;;;;25.70;6.57;;;;;;;;;;5011948;28;20029;-62
2022/07/02 03:10:35;;;;;;;29.27;7.53;;;;;;;;;;5012727;28;20400;-63
2022/07/02 03:13:02;;;;;;;27.50;6.72;;;;;;;;;;5012757;28;20058;-62
2022/07/02 03:15:29;;;;;;;22.98;6.88;;;;;;;;;;5012838;28;20041;-62
2022/07/02 03:17:56;;;;;;;20.00;6.22;;;;;;;;;;5004462;28;20030;-63
2022/07/02 03:20:23;;;;;;;21.65;6.45;;;;;;;;;;5005253;28;20046;-64
2022/07/02 03:22:50;;;;;;;26.98;6.18;;;;;;;;;;5009955;28;20021;-62
2022/07/02 03:25:17;;;;;;;23.05;5.78;;;;;;;;;;5002791;28;20811;-63
2022/07/02 03:27:44;;;;;;;20.15;6.15;;;;;;;;;;5003038;28;20118;-63
2022/07/02 03:30:12;;;;;;;23.45;6.22;;;;;;;;;;5001254;28;20404;-63
2022/07/02 03:32:39;;;;;;;20.23;6.47;;;;;;;;;;5001830;28;20104;-62
2022/07/02 03:35:06;;;;;;;19.35;5.93;;;;;;;;;;5002863;28;20073;-62
2022/07/02 03:37:33;;;;;;;18.70;6.05;;;;;;;;;;5003268;28;20471;-62
2022/07/02 03:40:00;;;;;;;21.38;6.43;;;;;;;;;;5001582;28;20574;-64
2022/07/02 03:42:27;;;;;;;18.63;5.70;;;;;;;;;;5002132;28;20053;-63
2022/07/02 03:44:54;;;;;;;23.80;5.80;;;;;;;;;;5003480;28;20530;-62
2022/07/02 03:47:21;;;;;;;22.30;6.13;;;;;;;;;;5001811;28;20026;-63
2022/07/02 03:49:48;;;;;;;25.23;5.97;;;;;;;;;;5001973;28;20053;-64
2022/07/02 03:52:15;;;;;;;18.98;5.65;;;;;;;;;;5003368;28;20625;-62
2022/07/02 03:54:42;;;;;;;19.13;5.38;;;;;;;;;;5002194;28;20042;-61
2022/07/02 03:57:10;;;;;;;16.80;5.15;;;;;;;;;;5000234;28;20061;-62
2022/07/02 03:59:37;;;;;;;16.95;4.80;;;;;;;;;;5003526;28;20507;-62
2022/07/02 04:02:04;;;;;;;22.42;5.60;;;;;;;;;;5000190;28;20038;-62
2022/07/02 04:04:31;;;;;;;13.65;4.70;;;;;;;;;;4993081;28;20031;-64
2022/07/02 04:06:58;;;;;;;16.95;5.03;;;;;;;;;;4993272;28;20057;-62
2022/07/02 04:09:25;;;;;;;17.05;4.85;;;;;;;;;;4992547;28;20027;-62
2022/07/02 04:11:52;;;;;;;17.95;4.45;;;;;;;;;;4993530;28;20065;-62
2022/07/02 04:14:19;;;;;;;17.15;4.82;;;;;;;;;;4992307;28;20042;-62
2022/07/02 04:16:46;;;;;;;14.65;4.45;;;;;;;;;;4993402;28;20041;-62
2022/07/02 04:19:13;;;;;;;12.52;4.20;;;;;;;;;;4992481;28;20034;-62
2022/07/02 04:21:40;;;;;;;15.00;4.38;;;;;;;;;;4992964;28;20429;-63
2022/07/02 04:24:07;;;;;;;18.48;4.57;;;;;;;;;;4992127;28;20038;-64
2022/07/02 04:26:34;;;;;;;17.88;4.10;;;;;;;;;;4992310;28;20041;-63
2022/07/02 04:29:01;;;;;;;14.80;4.20;;;;;;;;;;4993021;28;20108;-63
2022/07/02 04:31:28;;;;;;;16.65;4.13;;;;;;;;;;4993029;28;20034;-63
2022/07/02 04:33:55;;;;;;;16.27;4.32;;;;;;;;;;4992156;28;20026;-62
2022/07/02 04:36:22;;;;;;;16.90;4.20;;;;;;;;;;4992977;28;20026;-61
2022/07/02 04:38:49;;;;;;;14.13;4.07;;;;;;;;;;4992101;28;20117;-64
2022/07/02 04:41:16;;;;;;;11.55;3.53;;;;;;;;;;4992871;28;20030;-63
2022/07/02 04:43:43;;;;;;;13.75;4.20;;;;;;;;;;4998084;28;20113;-62
2022/07/02 04:46:11;;;;;;;22.13;4.13;;;;;;;;;;5022662;28;20488;-64
2022/07/02 04:48:38;;;;;;;13.10;4.18;;;;;;;;;;5011395;28;20034;-61
2022/07/02 04:51:05;;;;;;;12.70;3.90;;;;;;;;;;5012292;28;20026;-64
2022/07/02 04:53:32;;;;;;;10.00;3.65;;;;;;;;;;5011133;28;20112;-62
2022/07/02 04:55:59;;;;;;;13.73;3.17;;;;;;;;;;5011686;28;20040;-62
2022/07/02 04:58:26;;;;;;;13.60;4.15;;;;;;;;;;5011882;28;20033;-64
2022/07/02 05:00:53;;;;;;;12.07;3.63;;;;;;;;;;5011908;28;20029;-64
2022/07/02 05:03:19;;;;;;;12.40;3.75;;;;;;;;;;5012436;28;20064;-63
2022/07/02 05:05:46;;;;;;;18.25;3.85;;;;;;;;;;5011652;28;20033;-63
2022/07/02 05:08:13;;;;;;;11.15;3.70;;;;;;;;;;5012337;28;20054;-61
2022/07/02 05:10:40;;;;;;;12.88;3.70;;;;;;;;;;5011834;28;20046;-62
2022/07/02 05:13:08;;;;;;;10.45;3.25;;;;;;;;;;5011313;28;20083;-64
2022/07/02 05:15:34;;;;;;;8.88;3.38;;;;;;;;;;5011379;28;20042;-64
2022/07/02 05:18:01;;;;;;;16.20;4.10;;;;;;;;;;5011924;28;20030;-61
2022/07/02 05:20:29;;;;;;;12.45;3.80;;;;;;;;;;5011789;28;20067;-63
2022/07/02 05:22:56;;;;;;;12.38;3.65;;;;;;;;;;5010445;28;20387;-61
2022/07/02 05:25:23;;;;;;;9.48;3.50;;;;;;;;;;5011031;28;20030;-64
2022/07/02 05:27:50;;;;;;;10.68;2.90;;;;;;;;;;5011308;28;20022;-64
2022/07/02 05:30:17;;;;;;;14.10;3.20;;;;;;;;;;5011581;28;20591;-63
2022/07/02 05:32:44;;;;;;;17.73;3.75;;;;;;;;;;5011792;28;20535;-63
2022/07/02 05:35:11;;;;;;;13.85;3.20;;;;;;;;;;5011060;28;20490;-61
2022/07/02 05:37:38;;;;;;;13.00;3.95;;;;;;;;;;5012207;28;20025;-63
2022/07/02 05:40:05;;;;;;;9.00;2.95;;;;;;;;;;5011515;28;20033;-64
2022/07/02 05:42:32;;;;;;;8.88;3.15;;;;;;;;;;5011654;28;20042;-64
2022/07/02 05:44:59;;;;;;;8.95;2.70;;;;;;;;;;5011859;28;20045;-61
2022/07/02 05:47:26;;;;;;;11.75;2.72;;;;;;;;;;5011541;28;20084;-63
2022/07/02 05:49:53;;;;;;;14.10;3.00;;;;;;;;;;5011171;28;20058;-64
2022/07/02 05:52:20;;;;;;;9.85;2.85;;;;;;;;;;5011854;28;20451;-61
2022/07/02 05:54:47;;;;;;;16.17;3.90;;;;;;;;;;5011201;28;20091;-61
2022/07/02 05:57:15;;;;;;;10.10;2.85;;;;;;;;;;5011669;28;20492;-61
2022/07/02 05:59:42;;;;;;;8.23;3.00;;;;;;;;;;5011418;28;20069;-64
2022/07/02 06:02:09;;;;;;;10.30;2.58;;;;;;;;;;5011519;28;20037;-62
2022/07/02 06:04:36;;;;;;;12.05;2.85;;;;;;;;;;5011526;28;20058;-63
2022/07/02 06:09:48;;;;;;;11.27;2.72;;;;;;;;;;5011445;28;20049;-64
2022/07/02 06:12:15;;;;;;;9.27;2.83;;;;;;;;;;5011228;28;20061;-64
2022/07/02 06:14:42;;;;;;;10.60;2.75;;;;;;;;;;5011668;28;20052;-62
2022/07/02 06:17:10;;;;;;;9.02;2.65;;;;;;;;;;5010705;28;20046;-61
2022/07/02 06:19:38;;;;;;;9.45;2.55;;;;;;;;;;5010523;28;20463;-61
2022/07/02 06:22:06;;;;;;;8.57;3.15;;;;;;;;;;5011300;28;20149;-63
2022/07/02 06:24:33;;;;;;;8.35;2.30;;;;;;;;;;5013184;28;20030;-61
2022/07/02 06:27:00;;;;;;;10.80;2.67;;;;;;;;;;5014831;28;20506;-61
2022/07/02 06:29:27;;;;;;;10.40;2.97;;;;;;;;;;5014960;28;20038;-63
2022/07/02 06:31:54;;;;;;;6.35;2.13;;;;;;;;;;5014185;28;20072;-63
2022/07/02 06:34:21;;;;;;;7.55;2.58;;;;;;;;;;5014944;28;20026;-64
2022/07/02 06:36:48;;;;;;;8.13;2.35;;;;;;;;;;5014489;28;20030;-64
2022/07/02 06:39:15;;;;;;;6.20;2.10;;;;;;;;;;5014660;28;20112;-61
2022/07/02 06:44:27;;;;;;;11.45;2.22;;;;;;;;;;5014842;28;20466;-63
2022/07/02 06:46:54;;;;;;;6.65;2.47;;;;;;;;;;5013977;28;20038;-63
2022/07/02 06:49:21;;;;;;;5.85;1.80;;;;;;;;;;5014676;28;20033;-63
2022/07/02 06:51:48;;;;;;;7.40;2.00;;;;;;;;;;5013733;28;20080;-64
2022/07/02 06:54:15;;;;;;;6.35;2.10;;;;;;;;;;5014126;28;20041;-64
2022/07/02 06:56:43;;;;;;;5.20;2.03;;;;;;;;;;5012787;28;20041;-61
2022/07/02 06:59:10;;;;;;;5.20;2.10;;;;;;;;;;5014506;28;20049;-63
2022/07/02 07:01:37;;;;;;;10.00;2.60;;;;;;;;;;5013919;28;20038;-63
2022/07/02 07:04:04;;;;;;;6.78;2.20;;;;;;;;;;5014469;28;20018;-64
2022/07/02 07:06:34;;;;;;;5.60;2.10;;;;;;;;;;5012118;28;20030;-64
2022/07/02 07:09:01;;;;;;;7.30;2.00;;;;;;;;;;5014071;28;20415;-64
2022/07/02 07:11:28;;;;;;;8.27;2.30;;;;;;;;;;5013637;28;20040;-62
2022/07/02 07:16:37;;;;;;;6.85;2.03;;;;;;;;;;4963370;28;20046;-64
2022/07/02 07:19:09;;;;;;;4.35;1.40;;;;;;;;;;4974969;28;20476;-61
2022/07/02 07:21:37;;;;;;;4.80;1.88;;;;;;;;;;4975348;28;20109;-61
2022/07/02 07:24:05;;;;;;;6.90;2.00;;;;;;;;;;4974997;28;20085;-61
2022/07/02 07:26:32;;;;;;;8.52;1.70;;;;;;;;;;4974915;28;20042;-64
2022/07/02 07:29:00;;;;;;;2.92;1.35;;;;;;;;;;4974694;28;20086;-64
2022/07/02 07:31:27;;;;;;;4.55;1.90;;;;;;;;;;4974650;28;20038;-63
2022/07/02 07:33:55;;;;;;;4.57;1.55;;;;;;;;;;4974978;28;20030;-61
2022/07/02 07:36:23;;;;;;;5.75;1.77;;;;;;;;;;4973193;28;20499;-64
2022/07/02 07:38:51;;;;;;;4.78;1.80;;;;;;;;;;4974640;28;20042;-63
2022/07/02 07:41:19;;;;;;;4.95;1.65;;;;;;;;;;4974941;28;20074;-61
2022/07/02 07:43:46;;;;;;;3.53;1.30;;;;;;;;;;4974506;28;20026;-61
2022/07/02 07:46:13;;;;;;;5.45;1.88;;;;;;;;;;4956883;28;20035;-62
2022/07/02 07:48:40;;;;;;;4.30;1.63;;;;;;;;;;4974578;28;20094;-64
2022/07/02 07:51:07;;;;;;;6.07;1.52;;;;;;;;;;4974629;28;20031;-64
2022/07/02 07:53:35;;;;;;;3.35;1.17;;;;;;;;;;4974047;28;20085;-68
2022/07/02 07:56:02;;;;;;;3.58;1.20;;;;;;;;;;4974321;28;20492;-64
2022/07/02 07:58:29;;;;;;;7.63;1.40;;;;;;;;;;4974419;28;20030;-64
2022/07/02 08:00:56;;;;;;;5.55;1.50;;;;;;;;;;4974432;28;20026;-64
2022/07/02 08:03:23;;;;;;;4.70;1.20;;;;;;;;;;4974399;28;20023;-61
2022/07/02 08:05:53;;;;;;;4.70;1.35;;;;;;;;;;4974017;28;20031;-61
2022/07/02 08:08:23;;;;;;;3.42;1.50;;;;;;;;;;4973670;28;20039;-62
2022/07/02 08:10:50;;;;;;;5.20;1.33;;;;;;;;;;4974481;28;20030;-61
2022/07/02 08:13:17;;;;;;;1.98;1.20;;;;;;;;;;4973839;28;20023;-64
2022/07/02 08:15:44;;;;;;;3.22;1.20;;;;;;;;;;4973990;28;20047;-64
2022/07/02 08:18:12;;;;;;;2.88;1.30;;;;;;;;;;4973788;28;20023;-61
2022/07/02 08:20:39;;;;;;;5.20;1.40;;;;;;;;;;4974071;28;20031;-62
2022/07/02 08:23:06;;;;;;;2.35;1.13;;;;;;;;;;4973556;28;20397;-62
2022/07/02 08:25:33;;;;;;;3.00;1.20;;;;;;;;;;4973934;28;20034;-61
2022/07/02 08:28:00;;;;;;;4.85;1.20;;;;;;;;;;4973723;28;20038;-64
2022/07/02 08:30:26;;;;;;;3.17;1.05;;;;;;;;;;4974149;28;20031;-65
2022/07/02 08:32:53;;;;;;;3.45;1.30;;;;;;;;;;4973576;28;20089;-64
2022/07/02 08:35:21;;;;;;;4.65;1.23;;;;;;;;;;4973832;28;20062;-65
2022/07/02 08:37:48;;;;;;;3.08;1.05;;;;;;;;;;4973175;28;20495;-62
2022/07/02 08:40:15;;;;;;;3.45;1.42;;;;;;;;;;4973499;28;20103;-62
2022/07/02 08:42:42;;;;;;;3.42;0.98;;;;;;;;;;4969331;28;20035;-60
2022/07/02 08:45:11;;;;;;;3.78;1.00;;;;;;;;;;4949385;29;20031;-64
2022/07/02 08:47:40;;;;;;;5.43;1.17;;;;;;;;;;4950622;28;20087;-62
2022/07/02 08:50:08;;;;;;;2.60;0.90;;;;;;;;;;4953846;29;20027;-64
2022/07/02 08:52:36;;;;;;;2.35;1.10;;;;;;;;;;4953283;29;20098;-62
2022/07/02 08:55:04;;;;;;;3.42;1.20;;;;;;;;;;4953038;29;20059;-64
2022/07/02 08:57:32;;;;;;;1.92;0.93;;;;;;;;;;4953605;29;20114;-64
2022/07/02 08:59:59;;;;;;;5.13;1.10;;;;;;;;;;4953825;29;20125;-64
2022/07/02 09:02:26;;;;;;;6.30;1.30;;;;;;;;;;4953357;29;20130;-64
2022/07/02 09:04:54;;;;;;;2.90;0.88;;;;;;;;;;4953149;29;20023;-62
2022/07/02 09:07:22;;;;;;;2.33;0.82;;;;;;;;;;4954005;29;20472;-62
2022/07/02 09:09:49;;;;;;;2.50;0.80;;;;;;;;;;4953297;29;20027;-62
2022/07/02 09:12:16;;;;;;;4.43;1.00;;;;;;;;;;4953754;29;20114;-61
2022/07/02 09:14:44;;;;;;;2.78;0.90;;;;;;;;;;4952612;29;20527;-62
2022/07/02 09:17:12;;;;;;;2.50;0.90;;;;;;;;;;4953586;29;20083;-64
2022/07/02 09:19:41;;;;;;;2.47;0.80;;;;;;;;;;4952927;29;20070;-64
2022/07/02 09:22:08;;;;;;;2.72;0.93;;;;;;;;;;4952982;29;20035;-61
2022/07/02 09:24:42;;;;;;;1.17;0.80;;;;;;;;;;4953729;29;20027;-62
2022/07/02 09:27:10;;;;;;;1.73;0.70;;;;;;;;;;4952844;29;20051;-62
2022/07/02 09:29:53;;;;;;;2.53;0.80;;;;;;;;;;4953751;29;20032;-61
2022/07/02 09:32:20;;;;;;;2.08;0.80;;;;;;;;;;4953225;29;20508;-62
2022/07/02 09:34:48;;;;;;;2.22;0.80;;;;;;;;;;4953259;29;20107;-64
2022/07/02 09:37:22;;;;;;;1.95;0.80;;;;;;;;;;4952893;29;20393;-61
2022/07/02 09:39:50;;;;;;;1.77;0.73;;;;;;;;;;4953512;29;20089;-64
2022/07/02 09:42:33;;;;;;;1.95;0.80;;;;;;;;;;4952926;29;20024;-64
2022/07/02 09:45:01;;;;;;;2.00;1.13;;;;;;;;;;4953479;29;20047;-61
2022/07/02 09:47:32;;;;;;;1.45;0.90;;;;;;;;;;4951152;29;20078;-62
2022/07/02 09:50:02;;;;;;;3.15;1.10;;;;;;;;;;4953580;29;20492;-64
2022/07/02 09:52:29;;;;;;;2.65;0.90;;;;;;;;;;4952631;29;20023;-62
2022/07/02 09:54:56;;;;;;;1.67;0.77;;;;;;;;;;4952130;29;20034;-64
2022/07/02 09:57:23;;;;;;;2.50;1.02;;;;;;;;;;4953236;28;20385;-64
2022/07/02 09:59:50;;;;;;;2.63;1.10;;;;;;;;;;4954927;29;20023;-64
2022/07/02 10:02:37;;;;;;;4.13;1.42;;;;;;;;;;4956942;29;20027;-64
2022/07/02 10:05:06;;;;;;;2.95;1.00;;;;;;;;;;4948222;29;20082;-65
2022/07/02 10:07:33;;;;;;;2.67;0.90;;;;;;;;;;4955840;29;20031;-61
2022/07/02 10:10:03;;;;;;;3.65;1.00;;;;;;;;;;4953052;29;20028;-61
2022/07/02 10:12:30;;;;;;;1.63;0.70;;;;;;;;;;4949869;29;20046;-65
2022/07/02 10:14:58;;;;;;;3.45;1.05;;;;;;;;;;4947981;29;20194;-62
2022/07/02 10:17:25;;;;;;;2.70;1.23;;;;;;;;;;4947190;29;20039;-64
2022/07/02 10:19:52;;;;;;;2.60;1.02;;;;;;;;;;4956282;29;20019;-65
2022/07/02 10:22:22;;;;;;;4.18;1.30;;;;;;;;;;4956301;29;20394;-62
2022/07/02 10:24:50;;;;;;;2.85;1.13;;;;;;;;;;4956164;29;20508;-61
2022/07/02 10:27:18;;;;;;;2.97;0.90;;;;;;;;;;4956461;29;20106;-62
2022/07/02 10:29:45;;;;;;;3.30;1.00;;;;;;;;;;4949470;29;20035;-62
2022/07/02 10:32:36;;;;;;;2.65;1.00;;;;;;;;;;4951226;29;20059;-62
2022/07/02 10:35:11;;;;;;;4.35;1.27;;;;;;;;;;4955693;29;20053;-62
2022/07/02 10:37:39;;;;;;;2.88;1.02;;;;;;;;;;4955676;29;20106;-62
2022/07/02 10:40:07;;;;;;;1.77;0.93;;;;;;;;;;4951565;29;20023;-61
2022/07/02 10:42:40;;;;;;;1.58;0.85;;;;;;;;;;4949980;29;20544;-64
2022/07/02 10:45:12;;;;;;;1.85;1.00;;;;;;;;;;4948710;29;20023;-62
2022/07/02 10:47:53;;;;;;;1.48;0.82;;;;;;;;;;4952152;29;20528;-64
2022/07/02 10:50:25;;;;;;;2.42;0.88;;;;;;;;;;4946284;29;20086;-64
2022/07/02 10:52:53;;;;;;;2.60;1.02;;;;;;;;;;4940511;29;20035;-65
2022/07/02 10:55:28;;;;;;;1.67;0.90;;;;;;;;;;4950003;29;20043;-64
2022/07/02 10:58:02;;;;;;;2.47;0.90;;;;;;;;;;4955565;29;20023;-64
2022/07/02 11:00:30;;;;;;;4.00;0.90;;;;;;;;;;4956079;29;20473;-64
2022/07/02 11:02:58;;;;;;;4.80;1.30;;;;;;;;;;4947313;29;20091;-64
2022/07/02 11:05:25;;;;;;;3.53;0.80;;;;;;;;;;4938847;29;20118;-62
2022/07/02 11:07:52;;;;;;;7.97;1.05;;;;;;;;;;4948521;29;20031;-65
2022/07/02 11:10:26;;;;;;;9.40;1.45;;;;;;;;;;4954330;28;20496;-65
2022/07/02 11:13:01;;;;;;;6.57;1.10;;;;;;;;;;4955596;29;20031;-65
2022/07/02 11:15:38;;;;;;;12.95;2.03;;;;;;;;;;4953889;29;20051;-68
2022/07/02 11:18:07;;;;;;;7.57;1.45;;;;;;;;;;4955162;29;20034;-65
2022/07/02 11:20:35;;;;;;;7.53;1.60;;;;;;;;;;4955343;29;20032;-65
2022/07/02 11:23:03;;;;;;;8.80;1.75;;;;;;;;;;4955617;29;20024;-68
2022/07/02 11:25:30;;;;;;;10.52;1.50;;;;;;;;;;4954671;29;20026;-65
2022/07/02 11:27:58;;;;;;;8.35;1.38;;;;;;;;;;4947517;29;20034;-65
2022/07/02 11:30:26;;;;;;;6.55;1.20;;;;;;;;;;4936029;29;20052;-65
2022/07/02 11:32:53;;;;;;;8.40;1.40;;;;;;;;;;4935938;29;20107;-67
2022/07/02 11:35:20;;;;;;;8.35;1.35;;;;;;;;;;4935439;29;20188;-67
2022/07/02 11:37:48;;;;;;;8.48;1.23;;;;;;;;;;4935922;29;20031;-67
2022/07/02 11:40:21;;;;;;;5.35;1.00;;;;;;;;;;4935450;29;20031;-66
2022/07/02 11:42:48;;;;;;;11.80;1.30;;;;;;;;;;4934648;29;20359;-65
2022/07/02 11:45:15;;;;;;;8.40;1.42;;;;;;;;;;4935388;29;20486;-67
2022/07/02 11:47:44;;;;;;;7.60;1.45;;;;;;;;;;4935064;29;20401;-68
2022/07/02 11:50:11;;;;;;;7.72;1.42;;;;;;;;;;4935830;29;20027;-65
2022/07/02 11:52:38;;;;;;;7.18;1.30;;;;;;;;;;4935291;29;20111;-64
2022/07/02 11:55:05;;;;;;;7.63;1.50;;;;;;;;;;4935508;29;20039;-67
2022/07/02 11:57:35;;;;;;;5.72;1.55;;;;;;;;;;4935089;29;20036;-67
2022/07/02 12:00:02;;;;;;;8.88;1.40;;;;;;;;;;4935060;29;20031;-64
2022/07/02 12:02:42;;;;;;;5.15;1.50;;;;;;;;;;4933709;29;20028;-67
2022/07/02 12:05:18;;;;;;;9.32;1.25;;;;;;;;;;4947943;29;20114;-64
2022/07/02 12:07:46;;;;;;;9.65;1.73;;;;;;;;;;4950817;29;20097;-64
2022/07/02 12:10:14;;;;;;;8.60;1.60;;;;;;;;;;4953469;29;20070;-67
2022/07/02 12:12:41;;;;;;;9.55;1.52;;;;;;;;;;4954308;29;20027;-63
2022/07/02 12:15:08;;;;;;;5.75;1.35;;;;;;;;;;4952503;29;20054;-65
2022/07/02 12:17:35;;;;;;;4.88;1.50;;;;;;;;;;4953482;29;20086;-66
2022/07/02 12:20:06;;;;;;;6.82;1.60;;;;;;;;;;4953158;29;20051;-63
2022/07/02 12:22:34;;;;;;;5.88;1.52;;;;;;;;;;4953009;28;20019;-65
2022/07/02 12:25:05;;;;;;;8.43;1.65;;;;;;;;;;4954064;29;20529;-63
2022/07/02 12:27:36;;;;;;;6.25;1.58;;;;;;;;;;4954714;29;20040;-65
2022/07/02 12:30:16;;;;;;;6.50;1.25;;;;;;;;;;4953486;29;20042;-63
2022/07/02 12:32:43;;;;;;;3.70;1.52;;;;;;;;;;4953874;29;20489;-65
2022/07/02 12:35:10;;;;;;;5.38;1.63;;;;;;;;;;4953484;29;20090;-65
2022/07/02 12:37:45;;;;;;;7.15;1.55;;;;;;;;;;4954104;29;20027;-66
2022/07/02 12:40:16;;;;;;;4.10;1.60;;;;;;;;;;4953526;29;20035;-65
2022/07/02 12:42:46;;;;;;;2.60;1.20;;;;;;;;;;4954052;29;20027;-65
2022/07/02 12:45:38;;;;;;;6.75;1.38;;;;;;;;;;4953923;29;20024;-63
2022/07/02 12:48:16;;;;;;;3.47;1.02;;;;;;;;;;4953432;29;20074;-65
2022/07/02 12:50:45;;;;;;;4.65;1.08;;;;;;;;;;4953863;29;20077;-63
2022/07/02 12:53:21;;;;;;;3.22;1.13;;;;;;;;;;4952584;29;20035;-63
2022/07/02 12:56:00;;;;;;;3.83;1.48;;;;;;;;;;4953375;29;20560;-63
2022/07/02 12:58:29;;;;;;;8.38;1.30;;;;;;;;;;4945459;29;20031;-63
2022/07/02 13:00:56;;;;;;;10.70;1.52;;;;;;;;;;4948785;29;20045;-63
2022/07/02 13:03:24;;;;;;;8.70;1.48;;;;;;;;;;4954473;29;20031;-66
2022/07/02 13:05:51;;;;;;;7.68;1.10;;;;;;;;;;4955257;29;20444;-66
2022/07/02 13:08:21;;;;;;;8.50;1.30;;;;;;;;;;4954232;29;20031;-66
2022/07/02 13:10:50;;;;;;;7.13;1.55;;;;;;;;;;4953410;29;20035;-66
2022/07/02 13:13:18;;;;;;;10.38;1.65;;;;;;;;;;4953724;29;20031;-66
2022/07/02 13:15:45;;;;;;;7.22;1.52;;;;;;;;;;4951591;29;20055;-63
2022/07/02 13:18:12;;;;;;;10.18;1.58;;;;;;;;;;4951458;29;20491;-63
2022/07/02 13:20:43;;;;;;;6.85;1.45;;;;;;;;;;4952215;29;20031;-66
2022/07/02 13:23:11;;;;;;;12.38;1.50;;;;;;;;;;4943004;29;20494;-66
2022/07/02 13:25:37;;;;;;;14.40;2.03;;;;;;;;;;4952090;29;20071;-66
2022/07/02 13:28:05;;;;;;;17.30;1.92;;;;;;;;;;4953221;29;20083;-66
2022/07/02 13:30:32;;;;;;;17.73;1.77;;;;;;;;;;4953744;29;20086;-63
2022/07/02 13:32:59;;;;;;;13.10;1.90;;;;;;;;;;4955106;28;20086;-63
2022/07/02 13:35:26;;;;;;;12.60;1.98;;;;;;;;;;4955387;29;20062;-64
2022/07/02 13:37:53;;;;;;;16.83;1.70;;;;;;;;;;4956178;29;20030;-66
2022/07/02 13:40:21;;;;;;;8.48;1.50;;;;;;;;;;4955677;29;20781;-63
2022/07/02 13:42:48;;;;;;;10.63;1.70;;;;;;;;;;4955875;29;20094;-63
2022/07/02 13:45:15;;;;;;;10.43;1.50;;;;;;;;;;4948703;29;20034;-66
2022/07/02 13:47:44;;;;;;;11.00;1.58;;;;;;;;;;4941908;29;20669;-63
2022/07/02 13:50:11;;;;;;;12.85;2.03;;;;;;;;;;4944201;29;20036;-63
2022/07/02 13:52:38;;;;;;;17.98;1.45;;;;;;;;;;4946810;29;20470;-63
2022/07/02 13:55:05;;;;;;;14.52;1.73;;;;;;;;;;4941022;29;20043;-63
2022/07/02 13:57:32;;;;;;;10.45;1.70;;;;;;;;;;4945609;29;20027;-63
2022/07/02 13:59:59;;;;;;;13.10;1.67;;;;;;;;;;4932844;29;20035;-63
2022/07/02 14:02:26;;;;;;;13.20;1.90;;;;;;;;;;4948963;29;20474;-62
2022/07/02 14:04:53;;;;;;;13.98;2.08;;;;;;;;;;4931687;29;20031;-63
2022/07/02 14:07:20;;;;;;;16.48;1.80;;;;;;;;;;4946783;29;20059;-63
2022/07/02 14:09:47;;;;;;;17.48;1.73;;;;;;;;;;4942235;29;20023;-65
2022/07/02 14:12:14;;;;;;;21.08;2.47;;;;;;;;;;4940297;29;20034;-66
2022/07/02 14:14:41;;;;;;;13.95;2.10;;;;;;;;;;4947693;29;20130;-65
2022/07/02 14:17:08;;;;;;;10.38;2.00;;;;;;;;;;4941585;29;20042;-63
2022/07/02 14:19:35;;;;;;;18.90;1.90;;;;;;;;;;4949070;29;20098;-62
2022/07/02 14:22:03;;;;;;;15.82;1.75;;;;;;;;;;4949413;29;20122;-62
2022/07/02 14:24:30;;;;;;;15.70;2.00;;;;;;;;;;4951168;29;20032;-65
2022/07/02 14:26:56;;;;;;;11.40;1.85;;;;;;;;;;4950219;29;20027;-64
2022/07/02 14:29:23;;;;;;;15.88;2.03;;;;;;;;;;4948944;29;20087;-66
2022/07/02 14:31:51;;;;;;;15.80;1.90;;;;;;;;;;4949277;29;20114;-62
2022/07/02 14:34:19;;;;;;;12.75;1.75;;;;;;;;;;4937407;29;20440;-62
2022/07/02 14:36:47;;;;;;;11.68;2.10;;;;;;;;;;4939048;29;20667;-63
2022/07/02 14:39:17;;;;;;;14.35;1.63;;;;;;;;;;4940562;29;20063;-65
2022/07/02 14:41:44;;;;;;;16.17;2.40;;;;;;;;;;4949900;29;20035;-62
2022/07/02 14:44:11;;;;;;;20.13;2.45;;;;;;;;;;4947187;28;20031;-65
2022/07/02 14:46:39;;;;;;;21.02;2.28;;;;;;;;;;4949628;29;20042;-62
2022/07/02 14:49:06;;;;;;;12.05;1.85;;;;;;;;;;4948437;29;20035;-63
2022/07/02 14:51:33;;;;;;;17.85;2.25;;;;;;;;;;4947702;29;20445;-62